Time;durP1;ratioP1;P1;durP2;ratioP2;P2;SDS_P1;SDS_P2;PMS_P1;PMS_P2;Temp;Humidity;BMP_temperature;BMP_pressure;BME280_temperature;BME280_humidity;BME280_pressure;Samples;Min_cycle;Max_cycle;Signal;HPM_P1;HPM_P2
2022/08/29 00:00:56;;;;;;;4.82;1.67;;;18.00;80.60;;;;;;4183221;28;20040;-83
2022/08/29 00:03:01;;;;;;;9.10;2.42;;;17.90;80.80;;;;;;4182443;28;20057;-83
2022/08/29 00:05:02;;;;;;;5.65;1.90;;;17.90;81.20;;;;;;4183449;28;20049;-83
2022/08/29 00:07:03;;;;;;;4.93;1.85;;;18.00;81.60;;;;;;4183200;28;20045;-84
2022/08/29 00:09:04;;;;;;;6.68;2.30;;;18.00;81.80;;;;;;4182445;28;20537;-83
2022/08/29 00:11:06;;;;;;;3.03;1.80;;;18.00;82.30;;;;;;4184141;28;20106;-83
2022/08/29 00:13:08;;;;;;;5.55;1.48;;;18.00;82.60;;;;;;4182934;28;20120;-83
2022/08/29 00:15:11;;;;;;;6.45;1.60;;;18.00;82.90;;;;;;4182085;28;20045;-84
2022/08/29 00:17:11;;;;;;;6.43;1.80;;;18.00;83.30;;;;;;4182216;28;20049;-83
2022/08/29 00:19:13;;;;;;;5.95;1.33;;;18.00;83.70;;;;;;4183102;28;20120;-84
2022/08/29 00:21:13;;;;;;;5.57;1.35;;;18.00;84.10;;;;;;4183206;28;20048;-83
2022/08/29 00:23:16;;;;;;;6.88;1.77;;;18.00;84.40;;;;;;4183162;28;20498;-83
2022/08/29 00:25:17;;;;;;;3.33;1.30;;;18.00;84.80;;;;;;4183772;28;20049;-83
2022/08/29 00:27:17;;;;;;;5.13;1.50;;;18.00;85.10;;;;;;4183143;28;20049;-83
2022/08/29 00:29:18;;;;;;;4.82;1.30;;;18.00;85.40;;;;;;4182972;28;20040;-83
2022/08/29 00:31:19;;;;;;;8.32;1.60;;;18.00;85.70;;;;;;4182550;28;20048;-83
2022/08/29 00:33:19;;;;;;;9.23;2.90;;;18.00;86.10;;;;;;4182730;28;20414;-83
2022/08/29 00:35:26;;;;;;;4.55;1.40;;;18.00;86.30;;;;;;4182098;28;20127;-84
2022/08/29 00:37:27;;;;;;;5.93;1.80;;;18.00;86.90;;;;;;4182341;28;20049;-84
2022/08/29 00:39:28;;;;;;;5.68;1.73;;;17.90;87.00;;;;;;4181487;28;20055;-84
2022/08/29 00:41:29;;;;;;;6.72;1.80;;;17.90;87.40;;;;;;4181999;28;20041;-84
2022/08/29 00:43:33;;;;;;;6.95;2.50;;;17.90;87.80;;;;;;4182164;28;20499;-84
2022/08/29 00:45:35;;;;;;;4.13;1.63;;;17.90;88.10;;;;;;4181288;28;20087;-84
2022/08/29 00:47:41;;;;;;;4.80;1.55;;;17.90;88.20;;;;;;4182746;28;20396;-84
2022/08/29 00:49:45;;;;;;;7.10;1.98;;;17.90;88.40;;;;;;4181874;28;20052;-84
2022/08/29 00:51:46;;;;;;;5.70;1.50;;;17.90;88.50;;;;;;4182347;28;20045;-84
2022/08/29 00:53:51;;;;;;;2.75;1.50;;;17.90;88.80;;;;;;4182701;28;20048;-84
2022/08/29 00:55:52;;;;;;;9.48;2.63;;;17.90;89.10;;;;;;4180906;28;20045;-84
2022/08/29 00:57:57;;;;;;;8.43;1.55;;;17.80;89.90;;;;;;4181501;28;20041;-84
2022/08/29 00:59:58;;;;;;;5.25;1.30;;;17.80;90.10;;;;;;4182215;28;20053;-84
2022/08/29 01:02:00;;;;;;;6.53;1.70;;;17.80;90.00;;;;;;4182824;28;20494;-85
2022/08/29 01:04:02;;;;;;;5.00;1.50;;;17.80;90.10;;;;;;4182103;28;20044;-84
2022/08/29 01:06:04;;;;;;;6.00;1.20;;;17.80;90.20;;;;;;4180958;28;20403;-84
2022/08/29 01:08:05;;;;;;;3.30;1.05;;;17.80;90.30;;;;;;4180908;28;20128;-84
2022/08/29 01:10:07;;;;;;;2.35;1.02;;;17.80;90.40;;;;;;4182053;28;20424;-84
2022/08/29 01:12:18;;;;;;;3.83;1.55;;;17.80;90.60;;;;;;4180670;28;20056;-84
2022/08/29 01:14:24;;;;;;;3.42;1.00;;;17.80;90.70;;;;;;4182447;28;20383;-84
2022/08/29 01:16:26;;;;;;;2.78;1.23;;;17.80;90.90;;;;;;4182266;28;20087;-84
2022/08/29 01:18:31;;;;;;;4.25;1.17;;;17.80;91.00;;;;;;4183801;28;20840;-84
2022/08/29 01:20:47;;;;;;;4.85;1.17;;;17.80;91.10;;;;;;4183179;28;20072;-84
2022/08/29 01:22:56;;;;;;;2.33;0.75;;;17.80;91.30;;;;;;4182215;28;20565;-84
2022/08/29 01:24:58;;;;;;;5.10;1.92;;;17.80;91.30;;;;;;4182107;28;20052;-84
2022/08/29 01:26:59;;;;;;;14.13;2.03;;;17.80;91.30;;;;;;4181813;28;20052;-84
2022/08/29 01:29:00;;;;;;;3.90;1.00;;;17.80;91.40;;;;;;4180875;28;20045;-84
2022/08/29 01:31:06;;;;;;;6.45;1.33;;;17.70;91.50;;;;;;4179619;28;20518;-84
2022/08/29 01:33:07;;;;;;;8.32;1.42;;;17.70;91.70;;;;;;4179012;28;20195;-84
2022/08/29 01:35:08;;;;;;;9.55;1.23;;;17.70;91.80;;;;;;4180047;28;20500;-84
2022/08/29 01:37:13;;;;;;;9.38;1.75;;;17.70;91.90;;;;;;4180528;28;20131;-84
2022/08/29 01:39:14;;;;;;;2.70;0.93;;;17.70;92.00;;;;;;4179939;28;20040;-84
2022/08/29 01:41:17;;;;;;;3.85;1.08;;;17.70;92.10;;;;;;4180402;28;20137;-84
2022/08/29 01:43:18;;;;;;;6.95;1.40;;;17.70;92.30;;;;;;4180860;28;20045;-84
2022/08/29 01:45:19;;;;;;;7.25;1.80;;;17.70;92.40;;;;;;4180595;28;20049;-84
2022/08/29 01:47:22;;;;;;;3.00;1.27;;;17.70;92.40;;;;;;4181916;28;20445;-84
2022/08/29 01:49:23;;;;;;;7.40;1.60;;;17.70;92.50;;;;;;4181756;28;20099;-84
2022/08/29 01:51:24;;;;;;;3.92;1.30;;;17.70;92.50;;;;;;4180246;28;20092;-85
2022/08/29 01:53:25;;;;;;;2.83;1.15;;;17.70;92.60;;;;;;4181510;28;20048;-85
2022/08/29 01:55:25;;;;;;;5.30;2.20;;;17.70;92.70;;;;;;4180017;28;20056;-84
2022/08/29 01:57:26;;;;;;;4.65;1.15;;;17.70;92.70;;;;;;4181983;28;20486;-84
2022/08/29 01:59:30;;;;;;;13.50;3.35;;;17.70;92.80;;;;;;4181567;28;20513;-83
2022/08/29 02:01:38;;;;;;;4.40;1.20;;;17.70;92.90;;;;;;4181991;28;20128;-83
2022/08/29 02:03:38;;;;;;;6.57;1.30;;;17.70;93.00;;;;;;4182111;28;20497;-84
2022/08/29 02:05:40;;;;;;;8.70;1.27;;;17.70;93.00;;;;;;4181962;28;20183;-84
2022/08/29 02:07:41;;;;;;;5.50;1.98;;;17.70;93.10;;;;;;4181360;28;20124;-84
2022/08/29 02:09:42;;;;;;;4.22;1.23;;;17.70;93.20;;;;;;4182024;28;20037;-84
2022/08/29 02:11:45;;;;;;;9.27;1.58;;;17.70;93.40;;;;;;4180842;28;20431;-84
2022/08/29 02:13:54;;;;;;;8.85;2.42;;;17.70;93.50;;;;;;4181943;28;20379;-84
2022/08/29 02:15:55;;;;;;;3.63;1.52;;;17.70;93.70;;;;;;4181536;28;20053;-84
2022/08/29 02:17:56;;;;;;;6.05;1.73;;;17.60;93.80;;;;;;4181542;28;20522;-84
2022/08/29 02:19:57;;;;;;;6.57;1.35;;;17.60;93.80;;;;;;4181715;28;20072;-84
2022/08/29 02:21:58;;;;;;;7.35;1.45;;;17.60;94.10;;;;;;4180446;28;20053;-83
2022/08/29 02:24:01;;;;;;;4.50;1.75;;;17.60;94.30;;;;;;4180498;28;20522;-84
2022/08/29 02:26:03;;;;;;;8.93;1.35;;;17.50;94.50;;;;;;4182009;28;20053;-84
2022/08/29 02:28:04;;;;;;;5.38;1.35;;;17.50;94.60;;;;;;4180387;28;20091;-84
2022/08/29 02:30:05;;;;;;;7.63;1.77;;;17.50;94.90;;;;;;4180589;28;20095;-84
2022/08/29 02:32:10;;;;;;;7.82;1.45;;;17.50;95.10;;;;;;4181455;28;20060;-84
2022/08/29 02:34:11;;;;;;;6.70;1.70;;;17.50;95.20;;;;;;4180839;28;20045;-84
2022/08/29 02:36:12;;;;;;;4.65;1.42;;;17.50;95.40;;;;;;4181561;28;20445;-84
2022/08/29 02:38:14;;;;;;;7.60;1.52;;;17.50;95.50;;;;;;4181676;28;20044;-84
2022/08/29 02:40:15;;;;;;;5.05;1.50;;;17.50;95.70;;;;;;4180064;28;20150;-84
2022/08/29 02:42:15;;;;;;;7.20;1.73;;;17.50;95.80;;;;;;4181220;28;20045;-84
2022/08/29 02:44:16;;;;;;;7.35;1.63;;;17.50;95.90;;;;;;4181281;28;20537;-84
2022/08/29 02:46:19;;;;;;;7.03;1.50;;;17.50;96.00;;;;;;4163543;28;20076;-83
2022/08/29 02:48:21;;;;;;;4.13;2.03;;;17.50;96.10;;;;;;4181593;28;20116;-84
2022/08/29 02:50:23;;;;;;;10.75;1.90;;;17.50;96.20;;;;;;4181220;28;20053;-85
2022/08/29 02:52:24;;;;;;;5.15;2.08;;;17.50;96.30;;;;;;4181950;28;20486;-84
2022/08/29 02:54:25;;;;;;;4.38;1.80;;;17.50;96.50;;;;;;4181819;28;20048;-84
2022/08/29 02:56:26;;;;;;;8.18;2.15;;;17.50;96.50;;;;;;4179762;28;20052;-84
2022/08/29 02:58:27;;;;;;;9.32;1.73;;;17.40;96.60;;;;;;4181922;28;20407;-85
2022/08/29 03:00:28;;;;;;;7.05;1.55;;;17.40;96.80;;;;;;4181345;28;20029;-85
2022/08/29 03:02:29;;;;;;;6.45;1.90;;;17.40;96.90;;;;;;4181571;28;20048;-85
2022/08/29 03:04:30;;;;;;;8.18;1.55;;;17.40;96.90;;;;;;4181961;28;20041;-85
2022/08/29 03:06:30;;;;;;;12.23;2.05;;;17.40;97.00;;;;;;4183455;28;20082;-85
2022/08/29 03:08:31;;;;;;;9.73;2.13;;;17.40;97.10;;;;;;4184707;28;20041;-86
2022/08/29 03:10:34;;;;;;;7.10;1.83;;;17.40;97.20;;;;;;4182970;28;20505;-85
2022/08/29 03:12:35;;;;;;;8.38;1.50;;;17.40;97.20;;;;;;4183386;28;20506;-85
2022/08/29 03:14:36;;;;;;;9.48;1.52;;;17.30;97.30;;;;;;4183346;28;20538;-85
2022/08/29 03:16:37;;;;;;;9.48;2.25;;;17.30;97.40;;;;;;4183634;28;20080;-85
2022/08/29 03:18:38;;;;;;;4.80;2.03;;;17.30;97.40;;;;;;4184375;28;20144;-85
2022/08/29 03:20:40;;;;;;;6.95;1.35;;;17.30;97.40;;;;;;4183033;28;20106;-85
2022/08/29 03:22:41;;;;;;;5.47;1.45;;;17.30;97.50;;;;;;4184457;28;20045;-85
2022/08/29 03:24:41;;;;;;;7.97;1.77;;;17.30;97.60;;;;;;4183203;28;20485;-85
2022/08/29 03:26:42;;;;;;;3.20;1.23;;;17.30;97.60;;;;;;4184049;28;20131;-85
2022/08/29 03:28:43;;;;;;;5.60;1.20;;;17.30;97.60;;;;;;4183935;28;20124;-84
2022/08/29 03:30:44;;;;;;;5.60;1.00;;;17.30;97.60;;;;;;4184160;28;20049;-85
2022/08/29 03:32:47;;;;;;;11.07;1.40;;;17.30;97.70;;;;;;4182746;28;20088;-84
2022/08/29 03:34:48;;;;;;;8.30;1.67;;;17.30;97.70;;;;;;4166279;28;20052;-85
2022/08/29 03:36:48;;;;;;;7.97;1.13;;;17.30;97.70;;;;;;4182650;28;20135;-85
2022/08/29 03:38:49;;;;;;;6.20;1.00;;;17.30;97.80;;;;;;4182895;28;20130;-84
2022/08/29 03:40:50;;;;;;;5.28;1.23;;;17.30;98.00;;;;;;4182235;28;20534;-84
2022/08/29 03:42:51;;;;;;;5.28;1.20;;;17.30;97.80;;;;;;4182967;28;20455;-83
2022/08/29 03:44:52;;;;;;;12.80;1.70;;;17.30;97.80;;;;;;4182480;28;20099;-84
2022/08/29 03:46:53;;;;;;;4.93;1.30;;;17.30;97.80;;;;;;4182746;28;20128;-84
2022/08/29 03:48:54;;;;;;;7.82;1.35;;;17.30;97.80;;;;;;4184158;28;20041;-85
2022/08/29 03:50:55;;;;;;;3.95;1.70;;;17.30;97.80;;;;;;4183241;28;20067;-85
2022/08/29 03:52:56;;;;;;;4.07;1.40;;;17.30;97.80;;;;;;4181886;28;20522;-84
2022/08/29 03:54:56;;;;;;;5.85;1.00;;;17.20;97.70;;;;;;4182761;28;20044;-85
2022/08/29 03:56:57;;;;;;;7.10;1.90;;;17.20;97.70;;;;;;4183404;28;20102;-85
2022/08/29 03:58:59;;;;;;;9.18;1.50;;;17.20;97.70;;;;;;4182230;28;20076;-84
2022/08/29 04:01:00;;;;;;;7.70;1.33;;;17.20;97.70;;;;;;4183108;28;20413;-84
2022/08/29 04:03:01;;;;;;;6.70;1.35;;;17.20;97.80;;;;;;4182256;28;20045;-85
2022/08/29 04:05:08;;;;;;;7.20;1.40;;;17.20;97.80;;;;;;4181971;28;20089;-84
2022/08/29 04:07:12;;;;;;;7.53;1.42;;;17.20;97.80;;;;;;4183396;28;20053;-84
2022/08/29 04:09:12;;;;;;;4.25;1.35;;;17.20;97.80;;;;;;4182385;28;20059;-85
2022/08/29 04:11:15;;;;;;;6.63;1.35;;;17.20;97.80;;;;;;4180782;28;20041;-85
2022/08/29 04:13:15;;;;;;;5.15;1.33;;;17.20;97.80;;;;;;4180403;28;20049;-85
2022/08/29 04:15:16;;;;;;;6.22;1.20;;;17.10;97.70;;;;;;4180654;28;20521;-85
2022/08/29 04:17:18;;;;;;;3.67;1.60;;;17.10;97.80;;;;;;4179784;28;20569;-85
2022/08/29 04:19:20;;;;;;;4.97;1.10;;;17.20;97.80;;;;;;4181866;28;20384;-84
2022/08/29 04:21:21;;;;;;;3.47;1.10;;;17.20;97.80;;;;;;4182082;28;20076;-85
2022/08/29 04:23:22;;;;;;;6.45;1.40;;;17.20;97.80;;;;;;4181821;28;20555;-85
2022/08/29 04:25:24;;;;;;;3.80;1.30;;;17.20;97.90;;;;;;4181486;28;20117;-85
2022/08/29 04:27:26;;;;;;;6.78;1.48;;;17.20;97.90;;;;;;4180335;28;20059;-84
2022/08/29 04:29:26;;;;;;;5.65;1.38;;;17.20;97.90;;;;;;4181776;28;20122;-84
2022/08/29 04:31:27;;;;;;;5.57;1.10;;;17.20;97.90;;;;;;4180806;28;20442;-85
2022/08/29 04:33:28;;;;;;;4.10;1.50;;;17.20;97.90;;;;;;4181816;28;20045;-85
2022/08/29 04:35:29;;;;;;;5.13;1.02;;;17.20;97.90;;;;;;4181156;28;20410;-85
2022/08/29 04:37:30;;;;;;;6.05;1.73;;;17.20;97.90;;;;;;4181150;28;20049;-84
2022/08/29 04:39:31;;;;;;;4.80;1.00;;;17.20;97.90;;;;;;4181252;28;20045;-85
2022/08/29 04:41:32;;;;;;;7.97;1.30;;;17.20;97.90;;;;;;4163599;28;20041;-84
2022/08/29 04:43:33;;;;;;;2.55;1.20;;;17.20;98.00;;;;;;4181665;28;20043;-84
2022/08/29 04:45:34;;;;;;;5.78;1.30;;;17.20;98.00;;;;;;4181648;28;20132;-84
2022/08/29 04:47:35;;;;;;;5.57;1.02;;;17.20;98.00;;;;;;4181624;28;20123;-84
2022/08/29 04:49:36;;;;;;;9.20;1.30;;;17.20;98.10;;;;;;4181429;28;20060;-84
2022/08/29 04:51:37;;;;;;;11.27;1.58;;;17.20;98.10;;;;;;4179467;28;20051;-84
2022/08/29 04:53:37;;;;;;;5.60;1.40;;;17.20;98.10;;;;;;4180206;28;20103;-84
2022/08/29 04:55:38;;;;;;;8.98;1.15;;;17.20;98.10;;;;;;4181169;28;20473;-84
2022/08/29 04:57:39;;;;;;;5.68;1.30;;;17.20;98.30;;;;;;4180749;28;20537;-84
2022/08/29 04:59:40;;;;;;;4.68;1.55;;;17.20;98.20;;;;;;4182365;28;20159;-84
2022/08/29 05:01:42;;;;;;;4.30;2.05;;;17.20;98.30;;;;;;4181170;28;20490;-84
2022/08/29 05:03:43;;;;;;;4.40;1.30;;;17.20;98.40;;;;;;4181254;28;20076;-84
2022/08/29 05:05:43;;;;;;;7.50;1.42;;;17.20;98.70;;;;;;4180932;28;20052;-84
2022/08/29 05:07:45;;;;;;;6.80;1.73;;;17.20;98.40;;;;;;4180067;28;20059;-84
2022/08/29 05:10:02;;;;;;;6.00;1.08;;;17.30;98.50;;;;;;4180476;28;20060;-84
2022/08/29 05:12:03;;;;;;;6.78;1.05;;;17.30;98.50;;;;;;4180536;28;20430;-84
2022/08/29 05:14:04;;;;;;;4.05;1.52;;;17.30;98.50;;;;;;4181324;28;20052;-84
2022/08/29 05:16:07;;;;;;;4.28;1.30;;;17.30;98.50;;;;;;4181279;28;20041;-84
2022/08/29 05:18:08;;;;;;;2.70;1.10;;;17.30;98.60;;;;;;4180939;28;20101;-85
2022/08/29 05:20:09;;;;;;;7.95;1.40;;;17.30;98.70;;;;;;4180953;28;20124;-84
2022/08/29 05:22:12;;;;;;;4.82;1.08;;;17.30;98.70;;;;;;4181188;28;20070;-84
2022/08/29 05:24:13;;;;;;;5.80;1.20;;;17.30;98.70;;;;;;4179203;28;20049;-84
2022/08/29 05:26:15;;;;;;;6.90;1.42;;;17.30;98.70;;;;;;4181039;28;20118;-85
2022/08/29 05:28:15;;;;;;;4.18;1.13;;;17.40;98.70;;;;;;4179604;28;20049;-85
2022/08/29 05:30:17;;;;;;;9.23;1.75;;;17.40;98.70;;;;;;4179825;28;20082;-85
2022/08/29 05:32:20;;;;;;;5.63;1.73;;;17.40;98.70;;;;;;4180533;28;20049;-85
2022/08/29 05:34:20;;;;;;;7.60;1.70;;;17.40;98.70;;;;;;4181847;28;20413;-85
2022/08/29 05:36:22;;;;;;;4.15;1.33;;;17.40;98.70;;;;;;4182519;28;20083;-85
2022/08/29 05:38:23;;;;;;;7.82;1.38;;;17.40;98.70;;;;;;4180615;28;20053;-85
2022/08/29 05:40:24;;;;;;;3.60;1.20;;;17.50;98.70;;;;;;4181591;28;20125;-85
2022/08/29 05:42:26;;;;;;;4.07;1.25;;;17.50;98.70;;;;;;4180342;28;20102;-85
2022/08/29 05:44:28;;;;;;;12.10;3.10;;;17.50;98.70;;;;;;4182310;28;20502;-85
2022/08/29 05:46:29;;;;;;;3.17;1.05;;;17.50;98.70;;;;;;4180771;28;20045;-85
2022/08/29 05:48:30;;;;;;;5.35;1.42;;;17.50;98.80;;;;;;4180447;28;20491;-85
2022/08/29 05:50:31;;;;;;;10.48;1.42;;;17.50;98.80;;;;;;4181712;28;20056;-84
2022/08/29 05:52:31;;;;;;;7.75;2.45;;;17.50;98.90;;;;;;4180985;28;20044;-85
2022/08/29 05:54:35;;;;;;;5.35;1.38;;;17.50;98.90;;;;;;4181474;28;20094;-85
2022/08/29 05:56:35;;;;;;;5.05;1.42;;;17.60;99.00;;;;;;4180592;28;20049;-83
2022/08/29 05:58:36;;;;;;;11.88;2.35;;;17.60;99.00;;;;;;4180750;28;20416;-84
2022/08/29 06:00:41;;;;;;;5.00;1.48;;;17.70;99.00;;;;;;4180451;28;20049;-84
2022/08/29 06:02:42;;;;;;;8.48;1.20;;;17.70;99.10;;;;;;4180610;28;20056;-84
2022/08/29 06:04:43;;;;;;;9.27;1.40;;;17.70;99.10;;;;;;4180454;28;20044;-84
2022/08/29 06:06:44;;;;;;;4.95;1.90;;;17.80;99.10;;;;;;4181497;28;20045;-83
2022/08/29 06:08:44;;;;;;;8.82;1.40;;;17.70;99.20;;;;;;4181352;28;20090;-84
2022/08/29 06:10:46;;;;;;;3.58;1.20;;;17.80;99.20;;;;;;4181815;28;20040;-84
2022/08/29 06:12:47;;;;;;;6.40;1.55;;;17.90;99.30;;;;;;4182062;28;20145;-84
2022/08/29 06:14:47;;;;;;;9.10;1.20;;;17.90;99.30;;;;;;4180071;28;20052;-84
2022/08/29 06:16:48;;;;;;;6.78;1.83;;;17.90;99.30;;;;;;4181681;28;20044;-84
2022/08/29 06:18:49;;;;;;;16.45;3.10;;;18.00;99.30;;;;;;4180438;28;20092;-84
2022/08/29 06:20:50;;;;;;;7.28;1.65;;;18.00;99.30;;;;;;4181224;28;20036;-84
2022/08/29 06:22:51;;;;;;;7.28;1.70;;;18.10;99.40;;;;;;4181364;28;20037;-84
2022/08/29 06:24:53;;;;;;;6.13;2.38;;;18.10;99.40;;;;;;4181301;28;20041;-84
2022/08/29 06:26:55;;;;;;;6.55;1.85;;;18.20;99.40;;;;;;4181114;28;20041;-84
2022/08/29 06:28:56;;;;;;;8.93;2.22;;;18.20;99.40;;;;;;4163987;28;20042;-84
2022/08/29 06:31:07;;;;;;;7.47;1.70;;;18.30;99.40;;;;;;4181820;28;20051;-84
2022/08/29 06:33:09;;;;;;;7.22;1.58;;;18.30;99.50;;;;;;4180320;28;20056;-84
2022/08/29 06:35:10;;;;;;;8.68;1.48;;;18.40;99.30;;;;;;4163409;28;20128;-84
2022/08/29 06:37:10;;;;;;;4.70;1.50;;;18.40;99.20;;;;;;4181410;28;20104;-84
2022/08/29 06:39:11;;;;;;;5.40;1.40;;;18.60;99.20;;;;;;4181973;28;20059;-84
2022/08/29 06:41:14;;;;;;;7.05;1.63;;;18.70;99.10;;;;;;4183837;28;20067;-84
2022/08/29 06:43:15;;;;;;;5.18;1.63;;;18.80;99.00;;;;;;4185857;28;20049;-84
2022/08/29 06:45:16;;;;;;;7.93;2.42;;;18.80;98.90;;;;;;4184684;28;20090;-84
2022/08/29 06:47:18;;;;;;;12.20;2.67;;;18.90;98.80;;;;;;4185211;28;20037;-84
2022/08/29 06:49:19;;;;;;;8.82;1.70;;;19.00;98.80;;;;;;4184802;28;20060;-84
2022/08/29 06:51:21;;;;;;;6.70;1.88;;;19.10;98.70;;;;;;4186660;28;20076;-84
2022/08/29 06:53:22;;;;;;;7.40;1.83;;;19.20;98.60;;;;;;4183289;28;20049;-84
2022/08/29 06:55:22;;;;;;;10.10;1.70;;;19.30;98.60;;;;;;4183765;28;20525;-83
2022/08/29 06:57:23;;;;;;;14.90;2.63;;;19.50;98.50;;;;;;4186055;28;20049;-82
2022/08/29 06:59:24;;;;;;;13.68;2.80;;;19.60;98.40;;;;;;4167279;28;20060;-83
2022/08/29 07:01:25;;;;;;;12.90;2.22;;;19.80;98.20;;;;;;4186941;28;20401;-84
2022/08/29 07:03:26;;;;;;;4.50;1.60;;;19.80;98.00;;;;;;4204023;28;20045;-84
2022/08/29 07:05:28;;;;;;;4.95;1.65;;;19.90;98.00;;;;;;4199558;28;20134;-83
2022/08/29 07:07:29;;;;;;;7.47;1.77;;;19.90;97.90;;;;;;4188156;28;20103;-83
2022/08/29 07:09:31;;;;;;;12.57;2.67;;;19.90;97.80;;;;;;4183605;28;20132;-84
2022/08/29 07:11:32;;;;;;;13.60;2.25;;;19.90;97.70;;;;;;4184865;28;20045;-83
2022/08/29 07:13:36;;;;;;;9.90;2.50;;;20.10;97.70;;;;;;4180897;28;20171;-83
2022/08/29 07:15:37;;;;;;;6.93;2.30;;;20.20;97.50;;;;;;4171350;28;20053;-83
2022/08/29 07:17:37;;;;;;;8.00;1.67;;;20.30;97.40;;;;;;4184852;28;20617;-83
2022/08/29 07:19:38;;;;;;;11.77;2.45;;;20.30;97.20;;;;;;4199226;28;20083;-83
2022/08/29 07:21:39;;;;;;;8.50;1.70;;;20.30;97.20;;;;;;4182973;28;20103;-84
2022/08/29 07:23:40;;;;;;;9.10;2.10;;;20.20;97.10;;;;;;4178355;28;20044;-84
2022/08/29 07:25:40;;;;;;;5.97;1.75;;;20.20;97.10;;;;;;4173751;28;20029;-84
2022/08/29 07:27:41;;;;;;;8.98;3.05;;;20.10;97.10;;;;;;4180219;28;20045;-84
2022/08/29 07:29:42;;;;;;;8.02;2.05;;;20.20;97.10;;;;;;4184344;28;20041;-84
2022/08/29 07:31:43;;;;;;;8.32;2.15;;;20.20;97.00;;;;;;4186686;28;20032;-84
2022/08/29 07:33:45;;;;;;;11.70;2.47;;;20.20;97.00;;;;;;4194829;28;20139;-82
2022/08/29 07:35:46;;;;;;;6.68;2.72;;;20.20;97.00;;;;;;4184203;28;20052;-82
2022/08/29 07:37:47;;;;;;;8.32;2.38;;;20.20;96.80;;;;;;4183953;28;20084;-82
2022/08/29 07:39:47;;;;;;;8.40;1.83;;;20.20;96.80;;;;;;4182779;28;20080;-85
2022/08/29 07:41:50;;;;;;;4.97;1.80;;;20.20;96.70;;;;;;4182446;28;20068;-83
2022/08/29 07:43:51;;;;;;;8.88;1.85;;;20.20;96.70;;;;;;4184112;28;20048;-82
2022/08/29 07:45:53;;;;;;;4.07;1.73;;;20.10;96.70;;;;;;4183658;28;20535;-81
2022/08/29 07:47:54;;;;;;;8.90;1.65;;;20.10;96.80;;;;;;4184073;28;20110;-81
2022/08/29 07:49:55;;;;;;;8.98;2.10;;;20.10;96.80;;;;;;4182245;28;20481;-82
2022/08/29 07:51:56;;;;;;;6.20;1.90;;;20.10;96.90;;;;;;4182476;28;20094;-83
2022/08/29 07:53:57;;;;;;;7.70;1.70;;;20.10;96.80;;;;;;4190708;28;20455;-82
2022/08/29 07:55:58;;;;;;;9.60;1.92;;;20.10;96.80;;;;;;4200812;28;20398;-83
2022/08/29 07:57:59;;;;;;;8.77;2.05;;;20.20;96.70;;;;;;4200629;28;20040;-82
2022/08/29 08:00:00;;;;;;;9.50;2.00;;;20.30;96.60;;;;;;4201056;28;20124;-83
2022/08/29 08:02:02;;;;;;;8.15;2.97;;;20.30;96.50;;;;;;4198504;28;20052;-83
2022/08/29 08:04:04;;;;;;;9.10;1.90;;;20.40;96.50;;;;;;4194078;28;20509;-84
2022/08/29 08:06:05;;;;;;;16.23;2.20;;;20.50;96.40;;;;;;4190680;28;20084;-83
2022/08/29 08:08:08;;;;;;;8.40;2.03;;;20.50;96.20;;;;;;4182921;28;20052;-84
2022/08/29 08:10:09;;;;;;;6.47;1.70;;;20.60;96.20;;;;;;4182792;28;20057;-84
2022/08/29 08:12:11;;;;;;;8.23;2.08;;;20.60;96.20;;;;;;4184232;28;20936;-84
2022/08/29 08:14:12;;;;;;;8.98;2.45;;;20.60;96.10;;;;;;4182540;28;20053;-88
2022/08/29 08:16:16;;;;;;;6.43;2.05;;;20.60;96.10;;;;;;4184906;28;20415;-83
2022/08/29 08:18:17;;;;;;;9.90;2.08;;;20.60;96.10;;;;;;4185797;28;20045;-85
2022/08/29 08:20:19;;;;;;;6.95;2.47;;;20.70;96.20;;;;;;4185362;28;20040;-83
2022/08/29 08:22:19;;;;;;;6.25;2.03;;;20.60;96.20;;;;;;4187129;28;20037;-83
2022/08/29 08:24:20;;;;;;;6.10;2.08;;;20.60;96.40;;;;;;4199651;28;20044;-83
2022/08/29 08:26:22;;;;;;;8.40;2.05;;;20.60;96.10;;;;;;4190420;28;20388;-82
2022/08/29 08:28:23;;;;;;;17.83;3.92;;;20.60;96.10;;;;;;4193581;28;20510;-83
2022/08/29 08:30:24;;;;;;;8.52;2.88;;;20.50;96.20;;;;;;4190415;28;20037;-83
2022/08/29 08:32:24;;;;;;;11.88;2.47;;;20.50;96.20;;;;;;4188943;28;20037;-82
2022/08/29 08:34:28;;;;;;;10.35;2.20;;;20.50;96.20;;;;;;4190741;28;20052;-82
2022/08/29 08:36:30;;;;;;;8.57;2.08;;;20.50;96.20;;;;;;4186746;28;20410;-82
2022/08/29 08:38:31;;;;;;;10.45;1.98;;;20.50;96.20;;;;;;4187836;28;20045;-82
2022/08/29 08:40:32;;;;;;;11.10;1.90;;;20.50;96.10;;;;;;4188254;28;20041;-83
2022/08/29 08:42:42;;;;;;;6.95;2.28;;;20.50;96.10;;;;;;4188266;28;20456;-82
2022/08/29 08:45:11;;;;;;;5.00;1.92;;;20.60;96.00;;;;;;4187003;28;20059;-83
2022/08/29 08:47:14;;;;;;;;;;;20.60;95.90;;;;;;4185254;28;20467;-84
2022/08/29 08:49:23;;;;;;;7.35;1.88;;;20.60;95.80;;;;;;4184952;28;19921;-82
2022/08/29 08:51:29;;;;;;;7.15;2.03;;;20.70;95.70;;;;;;4184670;28;20041;-83
2022/08/29 08:53:33;;;;;;;8.32;2.35;;;20.70;95.60;;;;;;4183939;28;20052;-83
2022/08/29 08:55:41;;;;;;;9.02;2.15;;;20.80;95.50;;;;;;4184668;28;20055;-82
2022/08/29 08:57:51;;;;;;;13.50;2.28;;;21.00;95.40;;;;;;4184109;28;20053;-83
2022/08/29 08:59:57;;;;;;;9.02;2.80;;;21.10;95.30;;;;;;4183184;28;20041;-82
2022/08/29 09:02:13;;;;;;;5.72;2.63;;;21.10;95.00;;;;;;4186281;28;20049;-82
2022/08/29 09:04:28;;;;;;;6.88;2.30;;;21.30;94.90;;;;;;4190177;28;20056;-83
2022/08/29 09:06:50;;;;;;;7.10;2.00;;;21.50;94.60;;;;;;4188935;28;20052;-82
2022/08/29 09:09:28;;;;;;;8.02;1.95;;;21.70;94.50;;;;;;4190107;28;20069;-82
2022/08/29 09:12:00;;;;;;;6.07;2.05;;;21.70;94.00;;;;;;4191473;28;20072;-82
2022/08/29 09:14:19;;;;;;;8.90;3.00;;;21.70;94.10;;;;;;4181530;28;20513;-82
2022/08/29 09:16:28;;;;;;;11.05;3.33;;;21.70;93.80;;;;;;4192191;28;20036;-82
2022/08/29 09:18:35;;;;;;;5.45;2.00;;;21.70;93.80;;;;;;4190927;28;20036;-82
2022/08/29 09:20:38;;;;;;;10.68;2.72;;;21.60;93.70;;;;;;4192937;28;20037;-81
2022/08/29 09:22:42;;;;;;;12.57;2.08;;;21.60;93.60;;;;;;4192139;28;20055;-82
2022/08/29 09:24:49;;;;;;;8.00;1.92;;;21.60;93.60;;;;;;4189107;28;20120;-82
2022/08/29 09:26:51;;;;;;;11.23;2.03;;;21.70;93.50;;;;;;4181395;28;20049;-82
2022/08/29 09:28:53;;;;;;;5.95;1.80;;;21.70;93.50;;;;;;4180397;28;20158;-83
2022/08/29 09:31:12;;;;;;;9.18;2.70;;;21.70;93.40;;;;;;4181433;28;20041;-82
2022/08/29 09:33:15;;;;;;;7.50;2.30;;;21.70;93.30;;;;;;4181773;28;20045;-83
2022/08/29 09:35:25;;;;;;;8.95;2.70;;;21.70;93.40;;;;;;4182902;28;20509;-83
2022/08/29 09:37:30;;;;;;;11.05;2.22;;;21.70;93.30;;;;;;4180651;28;20080;-83
2022/08/29 09:39:31;;;;;;;4.40;1.73;;;21.70;93.20;;;;;;4179594;28;20056;-83
2022/08/29 09:41:32;;;;;;;11.25;2.10;;;21.70;93.10;;;;;;4180431;28;20056;-83
2022/08/29 09:43:39;;;;;;;6.88;1.77;;;21.70;93.00;;;;;;4181598;28;20605;-83
2022/08/29 09:45:39;;;;;;;5.80;2.10;;;21.70;92.90;;;;;;4178247;28;20148;-83
2022/08/29 09:47:40;;;;;;;6.43;1.80;;;21.70;92.90;;;;;;4166345;28;20049;-83
2022/08/29 09:50:10;;;;;;;6.97;2.13;;;21.80;92.70;;;;;;4168799;28;20415;-82
2022/08/29 09:52:16;;;;;;;9.20;1.90;;;21.80;92.60;;;;;;4164435;28;20109;-85
2022/08/29 09:54:27;;;;;;;11.50;2.80;;;21.90;92.50;;;;;;4164489;28;20411;-84
2022/08/29 09:56:28;;;;;;;9.95;2.60;;;21.90;92.60;;;;;;4164907;28;20052;-85
2022/08/29 09:58:33;;;;;;;10.50;1.92;;;21.90;92.60;;;;;;4164446;28;20049;-85
2022/08/29 10:00:56;;;;;;;10.85;1.90;;;21.90;92.50;;;;;;4165421;28;20046;-83
2022/08/29 10:03:03;;;;;;;7.68;1.90;;;22.00;92.40;;;;;;4163721;28;20057;-84
2022/08/29 10:05:06;;;;;;;6.97;1.98;;;22.00;92.30;;;;;;4165291;28;20049;-84
2022/08/29 10:07:23;;;;;;;9.55;2.13;;;22.10;92.20;;;;;;4165200;28;20095;-84
2022/08/29 10:09:26;;;;;;;6.88;1.90;;;22.10;92.10;;;;;;4148019;28;20061;-85
2022/08/29 10:11:33;;;;;;;9.15;1.95;;;22.10;92.10;;;;;;4180288;28;20045;-85
2022/08/29 10:13:46;;;;;;;8.18;1.92;;;22.10;92.10;;;;;;4179158;28;20061;-84
2022/08/29 10:15:54;;;;;;;14.68;2.47;;;22.10;92.10;;;;;;4176020;28;20418;-85
2022/08/29 10:18:26;;;;;;;6.97;1.90;;;22.20;92.00;;;;;;4179384;28;20051;-84
2022/08/29 10:20:53;;;;;;;7.68;2.00;;;22.10;91.60;;;;;;4170963;28;20045;-85
2022/08/29 10:23:12;;;;;;;9.98;3.05;;;22.20;91.70;;;;;;4180156;28;20517;-84
2022/08/29 10:25:38;;;;;;;8.52;2.25;;;22.40;91.50;;;;;;4179648;28;20061;-85
2022/08/29 10:27:46;;;;;;;9.48;2.30;;;22.40;91.50;;;;;;4179373;28;20477;-85
2022/08/29 10:30:08;;;;;;;5.32;1.65;;;22.50;91.80;;;;;;4181610;28;20075;-84
2022/08/29 10:32:43;;;;;;;8.13;1.77;;;22.60;91.50;;;;;;4159578;28;20042;-85
2022/08/29 10:35:05;;;;;;;6.43;2.33;;;22.60;91.30;;;;;;4173557;28;20413;-85
2022/08/29 10:37:21;;;;;;;8.20;1.80;;;22.60;91.20;;;;;;4179464;28;20049;-84
2022/08/29 10:39:37;;;;;;;13.73;2.25;;;22.70;91.20;;;;;;4179735;28;20057;-83
2022/08/29 10:42:02;;;;;;;7.35;2.13;;;22.80;91.10;;;;;;4180194;28;20110;-83